sensor_id;sensor_type;location;lat;lon;timestamp;P1;durP1;ratioP1;P2;durP2;ratioP2
79375;SDS011;68846;53.150;18.136;2023-07-20T00:02:03;4.90;;;3.00;;
79375;SDS011;68846;53.150;18.136;2023-07-20T00:04:31;4.40;;;2.90;;
79375;SDS011;68846;53.150;18.136;2023-07-20T00:06:59;5.70;;;3.20;;
79375;SDS011;68846;53.150;18.136;2023-07-20T00:09:27;5.60;;;3.80;;
79375;SDS011;68846;53.150;18.136;2023-07-20T00:11:53;3.70;;;2.80;;
79375;SDS011;68846;53.150;18.136;2023-07-20T00:14:19;3.70;;;3.20;;
79375;SDS011;68846;53.150;18.136;2023-07-20T00:16:46;4.70;;;3.00;;
79375;SDS011;68846;53.150;18.136;2023-07-20T00:19:14;4.70;;;3.30;;
79375;SDS011;68846;53.150;18.136;2023-07-20T00:21:42;6.00;;;2.50;;
79375;SDS011;68846;53.150;18.136;2023-07-20T00:24:08;3.20;;;2.60;;
79375;SDS011;68846;53.150;18.136;2023-07-20T00:26:34;6.40;;;3.70;;
79375;SDS011;68846;53.150;18.136;2023-07-20T00:29:01;7.10;;;3.60;;
79375;SDS011;68846;53.150;18.136;2023-07-20T00:31:27;5.60;;;3.40;;
79375;SDS011;68846;53.150;18.136;2023-07-20T00:33:56;3.70;;;2.90;;
79375;SDS011;68846;53.150;18.136;2023-07-20T00:36:22;5.70;;;3.80;;
79375;SDS011;68846;53.150;18.136;2023-07-20T00:38:49;5.50;;;3.30;;
79375;SDS011;68846;53.150;18.136;2023-07-20T00:41:16;5.30;;;3.30;;
79375;SDS011;68846;53.150;18.136;2023-07-20T00:43:42;4.50;;;2.80;;
79375;SDS011;68846;53.150;18.136;2023-07-20T00:46:08;3.50;;;2.70;;
79375;SDS011;68846;53.150;18.136;2023-07-20T00:48:35;4.40;;;2.80;;
79375;SDS011;68846;53.150;18.136;2023-07-20T00:51:02;5.60;;;3.20;;
79375;SDS011;68846;53.150;18.136;2023-07-20T00:53:28;3.60;;;3.10;;
79375;SDS011;68846;53.150;18.136;2023-07-20T00:55:55;6.90;;;4.00;;
79375;SDS011;68846;53.150;18.136;2023-07-20T00:58:25;4.90;;;3.30;;
79375;SDS011;68846;53.150;18.136;2023-07-20T01:00:52;4.10;;;3.30;;
79375;SDS011;68846;53.150;18.136;2023-07-20T01:03:19;5.40;;;3.40;;
79375;SDS011;68846;53.150;18.136;2023-07-20T01:05:51;5.40;;;3.40;;
79375;SDS011;68846;53.150;18.136;2023-07-20T01:08:43;3.80;;;3.10;;
79375;SDS011;68846;53.150;18.136;2023-07-20T01:14:24;4.80;;;3.30;;
79375;SDS011;68846;53.150;18.136;2023-07-20T01:16:51;5.20;;;3.90;;
79375;SDS011;68846;53.150;18.136;2023-07-20T01:19:20;5.50;;;3.70;;
79375;SDS011;68846;53.150;18.136;2023-07-20T01:24:30;5.00;;;3.30;;
79375;SDS011;68846;53.150;18.136;2023-07-20T01:30:12;5.80;;;3.50;;
79375;SDS011;68846;53.150;18.136;2023-07-20T01:32:43;5.40;;;3.60;;
79375;SDS011;68846;53.150;18.136;2023-07-20T01:35:12;4.80;;;3.50;;
79375;SDS011;68846;53.150;18.136;2023-07-20T01:37:41;8.00;;;3.50;;
79375;SDS011;68846;53.150;18.136;2023-07-20T01:40:10;5.80;;;4.20;;
79375;SDS011;68846;53.150;18.136;2023-07-20T01:42:38;6.30;;;3.90;;
79375;SDS011;68846;53.150;18.136;2023-07-20T01:45:04;5.80;;;4.30;;
79375;SDS011;68846;53.150;18.136;2023-07-20T01:47:31;9.20;;;4.40;;
79375;SDS011;68846;53.150;18.136;2023-07-20T01:49:58;5.80;;;3.70;;
79375;SDS011;68846;53.150;18.136;2023-07-20T01:52:28;4.10;;;3.20;;
79375;SDS011;68846;53.150;18.136;2023-07-20T01:55:00;4.60;;;3.50;;
79375;SDS011;68846;53.150;18.136;2023-07-20T01:57:26;5.30;;;3.90;;
79375;SDS011;68846;53.150;18.136;2023-07-20T01:59:52;7.00;;;3.70;;
79375;SDS011;68846;53.150;18.136;2023-07-20T02:02:18;6.10;;;4.70;;
79375;SDS011;68846;53.150;18.136;2023-07-20T02:04:46;6.80;;;4.60;;
79375;SDS011;68846;53.150;18.136;2023-07-20T02:07:14;6.80;;;4.60;;
79375;SDS011;68846;53.150;18.136;2023-07-20T02:09:40;5.80;;;4.30;;
79375;SDS011;68846;53.150;18.136;2023-07-20T02:12:07;6.30;;;4.30;;
79375;SDS011;68846;53.150;18.136;2023-07-20T02:14:34;7.40;;;3.90;;
79375;SDS011;68846;53.150;18.136;2023-07-20T02:17:01;7.00;;;4.40;;
79375;SDS011;68846;53.150;18.136;2023-07-20T02:19:28;6.30;;;4.70;;
79375;SDS011;68846;53.150;18.136;2023-07-20T02:21:55;7.30;;;4.40;;
79375;SDS011;68846;53.150;18.136;2023-07-20T02:24:23;8.60;;;4.90;;
79375;SDS011;68846;53.150;18.136;2023-07-20T02:26:49;8.40;;;4.20;;
79375;SDS011;68846;53.150;18.136;2023-07-20T02:29:15;10.10;;;4.40;;
79375;SDS011;68846;53.150;18.136;2023-07-20T02:31:41;8.60;;;4.70;;
79375;SDS011;68846;53.150;18.136;2023-07-20T02:34:09;5.70;;;4.20;;
79375;SDS011;68846;53.150;18.136;2023-07-20T02:36:35;7.80;;;4.90;;
79375;SDS011;68846;53.150;18.136;2023-07-20T02:39:01;6.70;;;4.60;;
79375;SDS011;68846;53.150;18.136;2023-07-20T02:41:32;7.90;;;4.60;;
79375;SDS011;68846;53.150;18.136;2023-07-20T02:43:59;9.70;;;4.70;;
79375;SDS011;68846;53.150;18.136;2023-07-20T02:46:27;6.00;;;4.30;;
79375;SDS011;68846;53.150;18.136;2023-07-20T02:48:56;6.80;;;4.60;;
79375;SDS011;68846;53.150;18.136;2023-07-20T02:51:22;6.60;;;3.90;;
79375;SDS011;68846;53.150;18.136;2023-07-20T02:53:48;4.90;;;3.70;;
79375;SDS011;68846;53.150;18.136;2023-07-20T02:56:15;7.10;;;3.80;;
79375;SDS011;68846;53.150;18.136;2023-07-20T02:58:41;5.10;;;3.00;;
79375;SDS011;68846;53.150;18.136;2023-07-20T03:01:09;4.90;;;3.00;;
79375;SDS011;68846;53.150;18.136;2023-07-20T03:03:36;4.00;;;2.70;;
79375;SDS011;68846;53.150;18.136;2023-07-20T03:06:05;4.80;;;2.80;;
79375;SDS011;68846;53.150;18.136;2023-07-20T03:08:31;3.70;;;2.60;;
79375;SDS011;68846;53.150;18.136;2023-07-20T03:10:57;3.90;;;2.50;;
79375;SDS011;68846;53.150;18.136;2023-07-20T03:13:24;3.50;;;2.30;;
79375;SDS011;68846;53.150;18.136;2023-07-20T03:15:51;3.80;;;2.30;;
79375;SDS011;68846;53.150;18.136;2023-07-20T03:18:19;3.30;;;2.20;;
79375;SDS011;68846;53.150;18.136;2023-07-20T03:23:12;3.90;;;2.40;;
79375;SDS011;68846;53.150;18.136;2023-07-20T03:25:38;4.00;;;2.60;;
79375;SDS011;68846;53.150;18.136;2023-07-20T03:28:04;4.30;;;3.00;;
79375;SDS011;68846;53.150;18.136;2023-07-20T03:30:31;4.30;;;2.80;;
79375;SDS011;68846;53.150;18.136;2023-07-20T03:32:57;3.60;;;2.50;;
79375;SDS011;68846;53.150;18.136;2023-07-20T03:35:24;8.10;;;2.50;;
79375;SDS011;68846;53.150;18.136;2023-07-20T03:37:50;2.60;;;1.90;;
79375;SDS011;68846;53.150;18.136;2023-07-20T03:40:16;2.50;;;1.60;;
79375;SDS011;68846;53.150;18.136;2023-07-20T03:42:43;3.20;;;1.80;;
79375;SDS011;68846;53.150;18.136;2023-07-20T03:45:09;4.30;;;2.00;;
79375;SDS011;68846;53.150;18.136;2023-07-20T03:47:35;4.30;;;2.00;;
79375;SDS011;68846;53.150;18.136;2023-07-20T03:50:02;3.50;;;1.80;;
79375;SDS011;68846;53.150;18.136;2023-07-20T03:52:29;5.80;;;2.20;;
79375;SDS011;68846;53.150;18.136;2023-07-20T03:54:55;4.80;;;2.20;;
79375;SDS011;68846;53.150;18.136;2023-07-20T03:57:21;3.00;;;2.00;;
79375;SDS011;68846;53.150;18.136;2023-07-20T04:00:14;5.10;;;2.30;;
79375;SDS011;68846;53.150;18.136;2023-07-20T04:02:42;3.90;;;1.80;;
79375;SDS011;68846;53.150;18.136;2023-07-20T04:05:08;4.70;;;2.10;;
79375;SDS011;68846;53.150;18.136;2023-07-20T04:07:35;6.40;;;2.10;;
79375;SDS011;68846;53.150;18.136;2023-07-20T04:10:26;3.00;;;1.80;;
79375;SDS011;68846;53.150;18.136;2023-07-20T04:12:52;4.10;;;2.10;;
79375;SDS011;68846;53.150;18.136;2023-07-20T04:15:18;5.80;;;2.00;;
79375;SDS011;68846;53.150;18.136;2023-07-20T04:17:45;3.60;;;2.10;;
79375;SDS011;68846;53.150;18.136;2023-07-20T04:22:38;3.80;;;2.00;;
79375;SDS011;68846;53.150;18.136;2023-07-20T04:25:07;4.70;;;2.00;;
79375;SDS011;68846;53.150;18.136;2023-07-20T04:27:34;6.10;;;2.70;;
79375;SDS011;68846;53.150;18.136;2023-07-20T04:30:00;3.80;;;2.00;;
79375;SDS011;68846;53.150;18.136;2023-07-20T04:32:26;3.80;;;1.80;;
79375;SDS011;68846;53.150;18.136;2023-07-20T04:37:19;3.10;;;2.20;;
79375;SDS011;68846;53.150;18.136;2023-07-20T04:39:47;2.90;;;1.90;;
79375;SDS011;68846;53.150;18.136;2023-07-20T04:42:13;5.40;;;2.20;;
79375;SDS011;68846;53.150;18.136;2023-07-20T04:44:40;7.70;;;1.90;;
79375;SDS011;68846;53.150;18.136;2023-07-20T04:47:07;7.40;;;1.80;;
79375;SDS011;68846;53.150;18.136;2023-07-20T04:49:37;4.30;;;2.30;;
79375;SDS011;68846;53.150;18.136;2023-07-20T04:52:04;3.80;;;2.10;;
79375;SDS011;68846;53.150;18.136;2023-07-20T04:54:31;3.90;;;2.30;;
79375;SDS011;68846;53.150;18.136;2023-07-20T04:56:58;5.60;;;2.40;;
79375;SDS011;68846;53.150;18.136;2023-07-20T04:59:24;3.70;;;2.00;;
79375;SDS011;68846;53.150;18.136;2023-07-20T05:01:50;4.60;;;1.90;;
79375;SDS011;68846;53.150;18.136;2023-07-20T05:04:17;3.00;;;2.10;;
79375;SDS011;68846;53.150;18.136;2023-07-20T05:09:10;3.50;;;1.80;;
79375;SDS011;68846;53.150;18.136;2023-07-20T05:11:36;4.00;;;1.90;;
79375;SDS011;68846;53.150;18.136;2023-07-20T05:14:03;3.10;;;1.90;;
79375;SDS011;68846;53.150;18.136;2023-07-20T05:16:29;4.50;;;2.10;;
79375;SDS011;68846;53.150;18.136;2023-07-20T05:19:00;4.20;;;2.00;;
79375;SDS011;68846;53.150;18.136;2023-07-20T05:21:27;2.90;;;1.80;;
79375;SDS011;68846;53.150;18.136;2023-07-20T05:23:53;8.00;;;2.00;;
79375;SDS011;68846;53.150;18.136;2023-07-20T05:26:19;5.80;;;1.70;;
79375;SDS011;68846;53.150;18.136;2023-07-20T05:28:46;2.90;;;1.80;;
79375;SDS011;68846;53.150;18.136;2023-07-20T05:31:12;2.60;;;1.70;;
79375;SDS011;68846;53.150;18.136;2023-07-20T05:33:38;2.70;;;1.70;;
79375;SDS011;68846;53.150;18.136;2023-07-20T05:36:04;2.20;;;1.50;;
79375;SDS011;68846;53.150;18.136;2023-07-20T05:38:31;4.20;;;2.00;;
79375;SDS011;68846;53.150;18.136;2023-07-20T05:40:59;3.00;;;1.50;;
79375;SDS011;68846;53.150;18.136;2023-07-20T05:43:27;1.70;;;1.40;;
79375;SDS011;68846;53.150;18.136;2023-07-20T05:45:54;2.70;;;1.40;;
79375;SDS011;68846;53.150;18.136;2023-07-20T05:48:20;3.90;;;1.50;;
79375;SDS011;68846;53.150;18.136;2023-07-20T05:50:46;4.50;;;1.50;;
79375;SDS011;68846;53.150;18.136;2023-07-20T05:53:12;2.30;;;1.40;;
79375;SDS011;68846;53.150;18.136;2023-07-20T05:55:39;3.70;;;1.50;;
79375;SDS011;68846;53.150;18.136;2023-07-20T05:58:05;2.50;;;1.50;;
79375;SDS011;68846;53.150;18.136;2023-07-20T06:00:32;3.10;;;1.40;;
79375;SDS011;68846;53.150;18.136;2023-07-20T06:02:58;4.90;;;1.60;;
79375;SDS011;68846;53.150;18.136;2023-07-20T06:05:24;2.80;;;1.40;;
79375;SDS011;68846;53.150;18.136;2023-07-20T06:07:50;3.00;;;1.50;;
79375;SDS011;68846;53.150;18.136;2023-07-20T06:10:18;4.10;;;1.70;;
79375;SDS011;68846;53.150;18.136;2023-07-20T06:12:44;2.50;;;1.70;;
79375;SDS011;68846;53.150;18.136;2023-07-20T06:15:26;2.20;;;1.50;;
79375;SDS011;68846;53.150;18.136;2023-07-20T06:17:54;3.70;;;1.70;;
79375;SDS011;68846;53.150;18.136;2023-07-20T06:20:22;2.80;;;1.50;;
79375;SDS011;68846;53.150;18.136;2023-07-20T06:22:49;3.80;;;1.60;;
79375;SDS011;68846;53.150;18.136;2023-07-20T06:25:16;2.30;;;1.40;;
79375;SDS011;68846;53.150;18.136;2023-07-20T06:27:43;2.80;;;1.50;;
79375;SDS011;68846;53.150;18.136;2023-07-20T06:30:10;2.50;;;1.50;;
79375;SDS011;68846;53.150;18.136;2023-07-20T06:32:36;6.10;;;1.70;;
79375;SDS011;68846;53.150;18.136;2023-07-20T06:35:02;3.70;;;1.40;;
79375;SDS011;68846;53.150;18.136;2023-07-20T06:37:29;9.40;;;1.60;;
79375;SDS011;68846;53.150;18.136;2023-07-20T06:39:55;3.40;;;1.40;;
79375;SDS011;68846;53.150;18.136;2023-07-20T06:42:22;3.70;;;1.30;;
79375;SDS011;68846;53.150;18.136;2023-07-20T06:44:48;3.10;;;1.20;;
79375;SDS011;68846;53.150;18.136;2023-07-20T06:47:14;3.70;;;1.10;;
79375;SDS011;68846;53.150;18.136;2023-07-20T06:49:40;2.00;;;1.20;;
79375;SDS011;68846;53.150;18.136;2023-07-20T06:52:06;4.50;;;1.40;;
79375;SDS011;68846;53.150;18.136;2023-07-20T06:54:33;2.70;;;1.50;;
79375;SDS011;68846;53.150;18.136;2023-07-20T06:56:59;4.80;;;2.00;;
79375;SDS011;68846;53.150;18.136;2023-07-20T06:59:26;3.80;;;1.80;;
79375;SDS011;68846;53.150;18.136;2023-07-20T07:01:52;4.60;;;2.00;;
79375;SDS011;68846;53.150;18.136;2023-07-20T07:04:18;4.50;;;1.90;;
79375;SDS011;68846;53.150;18.136;2023-07-20T07:06:44;2.80;;;1.90;;
79375;SDS011;68846;53.150;18.136;2023-07-20T07:09:10;2.20;;;1.70;;
79375;SDS011;68846;53.150;18.136;2023-07-20T07:11:37;3.70;;;1.80;;
79375;SDS011;68846;53.150;18.136;2023-07-20T07:14:03;3.60;;;2.00;;
79375;SDS011;68846;53.150;18.136;2023-07-20T07:16:29;5.40;;;2.20;;
79375;SDS011;68846;53.150;18.136;2023-07-20T07:18:56;3.70;;;1.90;;
79375;SDS011;68846;53.150;18.136;2023-07-20T07:21:22;2.90;;;2.00;;
79375;SDS011;68846;53.150;18.136;2023-07-20T07:23:48;3.60;;;1.90;;
79375;SDS011;68846;53.150;18.136;2023-07-20T07:26:15;10.50;;;2.30;;
79375;SDS011;68846;53.150;18.136;2023-07-20T07:28:42;5.70;;;2.30;;
79375;SDS011;68846;53.150;18.136;2023-07-20T07:31:09;7.30;;;2.20;;
79375;SDS011;68846;53.150;18.136;2023-07-20T07:33:35;5.00;;;2.20;;
79375;SDS011;68846;53.150;18.136;2023-07-20T07:36:01;5.10;;;2.00;;
79375;SDS011;68846;53.150;18.136;2023-07-20T07:38:29;5.20;;;2.30;;
79375;SDS011;68846;53.150;18.136;2023-07-20T07:40:56;4.80;;;1.60;;
79375;SDS011;68846;53.150;18.136;2023-07-20T07:43:22;6.30;;;1.80;;
79375;SDS011;68846;53.150;18.136;2023-07-20T07:45:49;5.80;;;1.70;;
79375;SDS011;68846;53.150;18.136;2023-07-20T07:48:16;3.80;;;1.40;;
79375;SDS011;68846;53.150;18.136;2023-07-20T07:50:43;3.40;;;1.80;;
79375;SDS011;68846;53.150;18.136;2023-07-20T07:53:10;3.30;;;1.70;;
79375;SDS011;68846;53.150;18.136;2023-07-20T07:58:03;3.70;;;1.20;;
79375;SDS011;68846;53.150;18.136;2023-07-20T08:02:58;2.30;;;0.90;;
79375;SDS011;68846;53.150;18.136;2023-07-20T08:05:25;2.50;;;1.50;;
79375;SDS011;68846;53.150;18.136;2023-07-20T08:07:52;2.70;;;1.20;;
79375;SDS011;68846;53.150;18.136;2023-07-20T08:10:21;1.80;;;1.20;;
79375;SDS011;68846;53.150;18.136;2023-07-20T08:12:48;1.70;;;0.80;;
79375;SDS011;68846;53.150;18.136;2023-07-20T08:15:15;1.60;;;0.80;;
79375;SDS011;68846;53.150;18.136;2023-07-20T08:17:43;1.70;;;0.90;;
79375;SDS011;68846;53.150;18.136;2023-07-20T08:20:10;1.70;;;1.00;;
79375;SDS011;68846;53.150;18.136;2023-07-20T08:22:38;2.10;;;0.80;;
79375;SDS011;68846;53.150;18.136;2023-07-20T08:25:06;1.40;;;0.80;;
79375;SDS011;68846;53.150;18.136;2023-07-20T08:27:32;1.30;;;0.90;;
79375;SDS011;68846;53.150;18.136;2023-07-20T08:29:58;1.70;;;0.80;;
79375;SDS011;68846;53.150;18.136;2023-07-20T08:32:25;1.60;;;0.80;;
79375;SDS011;68846;53.150;18.136;2023-07-20T08:34:53;1.40;;;0.70;;
79375;SDS011;68846;53.150;18.136;2023-07-20T08:37:19;2.60;;;0.80;;
79375;SDS011;68846;53.150;18.136;2023-07-20T08:39:46;1.70;;;1.00;;
79375;SDS011;68846;53.150;18.136;2023-07-20T08:42:12;1.60;;;0.70;;
79375;SDS011;68846;53.150;18.136;2023-07-20T08:44:41;0.70;;;0.60;;
79375;SDS011;68846;53.150;18.136;2023-07-20T08:47:08;1.10;;;0.70;;
79375;SDS011;68846;53.150;18.136;2023-07-20T08:49:36;1.80;;;0.80;;
79375;SDS011;68846;53.150;18.136;2023-07-20T08:52:05;2.80;;;0.90;;
79375;SDS011;68846;53.150;18.136;2023-07-20T08:57:02;1.40;;;0.80;;
79375;SDS011;68846;53.150;18.136;2023-07-20T08:59:30;3.50;;;1.10;;
79375;SDS011;68846;53.150;18.136;2023-07-20T09:01:58;1.80;;;1.20;;
79375;SDS011;68846;53.150;18.136;2023-07-20T09:04:26;1.20;;;0.80;;
79375;SDS011;68846;53.150;18.136;2023-07-20T09:06:52;1.80;;;0.70;;
79375;SDS011;68846;53.150;18.136;2023-07-20T09:09:18;2.60;;;0.70;;
79375;SDS011;68846;53.150;18.136;2023-07-20T09:11:48;1.70;;;0.80;;
79375;SDS011;68846;53.150;18.136;2023-07-20T09:14:15;1.40;;;0.80;;
79375;SDS011;68846;53.150;18.136;2023-07-20T09:19:16;1.20;;;0.80;;
79375;SDS011;68846;53.150;18.136;2023-07-20T09:21:46;2.00;;;1.00;;
79375;SDS011;68846;53.150;18.136;2023-07-20T09:24:14;2.10;;;1.00;;
79375;SDS011;68846;53.150;18.136;2023-07-20T09:26:43;2.00;;;0.90;;
79375;SDS011;68846;53.150;18.136;2023-07-20T09:29:14;2.30;;;1.10;;
79375;SDS011;68846;53.150;18.136;2023-07-20T09:32:01;1.60;;;0.90;;
79375;SDS011;68846;53.150;18.136;2023-07-20T09:34:30;2.80;;;0.80;;
79375;SDS011;68846;53.150;18.136;2023-07-20T09:36:58;3.00;;;1.10;;
79375;SDS011;68846;53.150;18.136;2023-07-20T09:39:25;1.80;;;1.00;;
79375;SDS011;68846;53.150;18.136;2023-07-20T09:41:52;2.90;;;0.90;;
79375;SDS011;68846;53.150;18.136;2023-07-20T09:44:19;3.00;;;1.00;;
79375;SDS011;68846;53.150;18.136;2023-07-20T09:46:48;2.40;;;1.00;;
79375;SDS011;68846;53.150;18.136;2023-07-20T09:49:17;3.30;;;1.10;;
79375;SDS011;68846;53.150;18.136;2023-07-20T09:51:44;1.30;;;0.80;;
79375;SDS011;68846;53.150;18.136;2023-07-20T09:54:13;1.10;;;0.80;;
79375;SDS011;68846;53.150;18.136;2023-07-20T09:56:39;1.90;;;0.80;;
79375;SDS011;68846;53.150;18.136;2023-07-20T09:59:07;1.00;;;0.80;;
79375;SDS011;68846;53.150;18.136;2023-07-20T10:01:34;2.40;;;0.90;;
79375;SDS011;68846;53.150;18.136;2023-07-20T10:04:02;2.20;;;0.80;;
79375;SDS011;68846;53.150;18.136;2023-07-20T10:06:30;1.00;;;0.70;;
79375;SDS011;68846;53.150;18.136;2023-07-20T10:09:00;1.30;;;0.60;;
79375;SDS011;68846;53.150;18.136;2023-07-20T10:11:30;0.90;;;0.70;;
79375;SDS011;68846;53.150;18.136;2023-07-20T10:14:01;1.70;;;0.60;;
79375;SDS011;68846;53.150;18.136;2023-07-20T10:16:39;2.60;;;0.90;;
79375;SDS011;68846;53.150;18.136;2023-07-20T10:19:17;0.90;;;0.70;;
79375;SDS011;68846;53.150;18.136;2023-07-20T10:22:07;1.80;;;0.60;;
79375;SDS011;68846;53.150;18.136;2023-07-20T10:24:44;3.20;;;0.70;;
79375;SDS011;68846;53.150;18.136;2023-07-20T10:27:12;0.90;;;0.70;;
79375;SDS011;68846;53.150;18.136;2023-07-20T10:29:40;4.00;;;0.80;;
79375;SDS011;68846;53.150;18.136;2023-07-20T10:32:08;1.60;;;0.80;;
79375;SDS011;68846;53.150;18.136;2023-07-20T10:37:51;0.70;;;0.60;;
79375;SDS011;68846;53.150;18.136;2023-07-20T10:40:24;1.20;;;0.70;;
79375;SDS011;68846;53.150;18.136;2023-07-20T10:42:55;1.30;;;0.70;;
79375;SDS011;68846;53.150;18.136;2023-07-20T10:48:04;1.00;;;0.80;;
79375;SDS011;68846;53.150;18.136;2023-07-20T10:50:33;1.40;;;0.80;;
79375;SDS011;68846;53.150;18.136;2023-07-20T10:53:18;1.80;;;0.60;;
79375;SDS011;68846;53.150;18.136;2023-07-20T10:55:44;1.90;;;0.60;;
79375;SDS011;68846;53.150;18.136;2023-07-20T10:58:13;1.60;;;0.60;;
79375;SDS011;68846;53.150;18.136;2023-07-20T11:01:02;0.90;;;0.60;;
79375;SDS011;68846;53.150;18.136;2023-07-20T11:03:39;1.50;;;0.60;;
79375;SDS011;68846;53.150;18.136;2023-07-20T11:08:55;1.60;;;1.10;;
79375;SDS011;68846;53.150;18.136;2023-07-20T11:11:46;1.30;;;0.60;;
79375;SDS011;68846;53.150;18.136;2023-07-20T11:14:21;2.20;;;0.80;;
79375;SDS011;68846;53.150;18.136;2023-07-20T11:16:49;1.40;;;0.60;;
79375;SDS011;68846;53.150;18.136;2023-07-20T11:19:18;1.60;;;0.80;;
79375;SDS011;68846;53.150;18.136;2023-07-20T11:21:46;1.30;;;0.70;;
79375;SDS011;68846;53.150;18.136;2023-07-20T11:24:20;1.20;;;0.80;;
79375;SDS011;68846;53.150;18.136;2023-07-20T11:26:47;1.50;;;0.60;;
79375;SDS011;68846;53.150;18.136;2023-07-20T11:29:15;1.90;;;0.50;;
79375;SDS011;68846;53.150;18.136;2023-07-20T11:31:43;1.40;;;0.70;;
79375;SDS011;68846;53.150;18.136;2023-07-20T11:34:11;2.30;;;0.70;;
79375;SDS011;68846;53.150;18.136;2023-07-20T11:36:42;3.10;;;0.90;;
79375;SDS011;68846;53.150;18.136;2023-07-20T11:39:10;2.20;;;0.90;;
79375;SDS011;68846;53.150;18.136;2023-07-20T11:41:38;2.90;;;0.90;;
79375;SDS011;68846;53.150;18.136;2023-07-20T11:44:06;2.00;;;0.90;;
79375;SDS011;68846;53.150;18.136;2023-07-20T11:46:33;1.40;;;0.80;;
79375;SDS011;68846;53.150;18.136;2023-07-20T11:49:01;2.40;;;0.80;;
79375;SDS011;68846;53.150;18.136;2023-07-20T11:51:28;3.00;;;0.70;;
79375;SDS011;68846;53.150;18.136;2023-07-20T11:53:56;2.70;;;0.80;;
79375;SDS011;68846;53.150;18.136;2023-07-20T11:56:23;1.30;;;0.80;;
79375;SDS011;68846;53.150;18.136;2023-07-20T11:58:53;2.30;;;0.80;;
79375;SDS011;68846;53.150;18.136;2023-07-20T12:01:23;1.00;;;0.60;;
79375;SDS011;68846;53.150;18.136;2023-07-20T12:03:49;2.50;;;0.70;;
79375;SDS011;68846;53.150;18.136;2023-07-20T12:06:15;1.20;;;0.60;;
79375;SDS011;68846;53.150;18.136;2023-07-20T12:08:43;2.30;;;0.70;;
79375;SDS011;68846;53.150;18.136;2023-07-20T12:11:10;0.80;;;0.60;;
79375;SDS011;68846;53.150;18.136;2023-07-20T12:13:42;2.30;;;0.60;;
79375;SDS011;68846;53.150;18.136;2023-07-20T12:16:14;1.10;;;0.50;;
79375;SDS011;68846;53.150;18.136;2023-07-20T12:18:42;1.50;;;0.60;;
79375;SDS011;68846;53.150;18.136;2023-07-20T12:21:09;2.00;;;0.90;;
79375;SDS011;68846;53.150;18.136;2023-07-20T12:23:40;2.20;;;0.90;;
79375;SDS011;68846;53.150;18.136;2023-07-20T12:26:07;1.50;;;1.00;;
79375;SDS011;68846;53.150;18.136;2023-07-20T12:28:38;1.40;;;0.70;;
79375;SDS011;68846;53.150;18.136;2023-07-20T12:31:08;0.90;;;0.60;;
79375;SDS011;68846;53.150;18.136;2023-07-20T12:33:36;1.90;;;0.60;;
79375;SDS011;68846;53.150;18.136;2023-07-20T12:36:04;1.30;;;0.90;;
79375;SDS011;68846;53.150;18.136;2023-07-20T12:38:30;1.70;;;0.80;;
79375;SDS011;68846;53.150;18.136;2023-07-20T12:40:57;1.00;;;0.60;;
79375;SDS011;68846;53.150;18.136;2023-07-20T12:43:25;1.20;;;0.90;;
79375;SDS011;68846;53.150;18.136;2023-07-20T12:45:52;1.90;;;0.80;;
79375;SDS011;68846;53.150;18.136;2023-07-20T12:48:18;2.80;;;0.80;;
79375;SDS011;68846;53.150;18.136;2023-07-20T12:50:44;1.90;;;1.20;;
79375;SDS011;68846;53.150;18.136;2023-07-20T12:53:11;0.90;;;0.70;;
79375;SDS011;68846;53.150;18.136;2023-07-20T12:55:37;0.80;;;0.60;;
79375;SDS011;68846;53.150;18.136;2023-07-20T12:58:05;1.10;;;0.60;;
79375;SDS011;68846;53.150;18.136;2023-07-20T13:00:32;1.50;;;0.90;;
79375;SDS011;68846;53.150;18.136;2023-07-20T13:02:58;3.00;;;0.70;;
79375;SDS011;68846;53.150;18.136;2023-07-20T13:05:25;1.70;;;0.60;;
79375;SDS011;68846;53.150;18.136;2023-07-20T13:07:51;1.70;;;0.60;;
79375;SDS011;68846;53.150;18.136;2023-07-20T13:10:17;1.50;;;0.80;;
79375;SDS011;68846;53.150;18.136;2023-07-20T13:12:44;1.70;;;0.70;;
79375;SDS011;68846;53.150;18.136;2023-07-20T13:15:44;2.90;;;0.80;;
79375;SDS011;68846;53.150;18.136;2023-07-20T13:18:12;2.70;;;0.90;;
79375;SDS011;68846;53.150;18.136;2023-07-20T13:20:38;1.90;;;0.80;;
79375;SDS011;68846;53.150;18.136;2023-07-20T13:23:04;2.60;;;0.70;;
